< < Back
Terminal Aerodrome Forecast


Current Version              Previous Versions:   1  2  3  4  5  6  7  8  9  

Terminal Aerodrome Forecast

189
FTUS44 KMOB 292024 AAA
TAFMOB
TAF AMD
KMOB 292024Z 2920/3018 23007KT P6SM VCTS SCT040CB BKN250
     FM300100 VRB03KT P6SM SCT250=



Latest METAR

944
SAUS80 KWBC 301400
MTRMOB
METAR KMOB 301356Z VRB03KT 10SM FEW150 BKN250 29/22 A3005 RMK AO2 SLP172
T02890217


USA.gov is the U.S. government's official web portal to all federal, state and local government web resources and services.